Terminal Aerodrome Forecast
Issued by NWS Wilmington, OH

Current Version | Previous Version | Graphics & Text | Print | Product List | Glossary On
Versions: 1 2 3 4 5 6 7 8 9 10 11 12 13 14
474
FTUS41 KILN 230535
TAFDAY
TAF
KDAY 230535Z 2306/2406 35007KT P6SM SCT015
      TEMPO 2306/2308 5SM BR OVC015
     FM230800 01005KT P6SM BKN008
     FM231300 02006KT P6SM SCT025
     FM231600 03008KT P6SM SCT035
     FM232300 06005KT P6SM SKC=

USA.gov is the U.S. government's official web portal to all federal, state and local government web resources and services.